sensor_id;sensor_type;location;lat;lon;timestamp;P1;durP1;ratioP1;P2;durP2;ratioP2
60726;SDS011;46577;49.004;12.120;2023-02-03T00:00:57;23.10;;;14.10;;
60726;SDS011;46577;49.004;12.120;2023-02-03T00:03:23;21.63;;;13.47;;
60726;SDS011;46577;49.004;12.120;2023-02-03T00:05:48;19.87;;;11.40;;
60726;SDS011;46577;49.004;12.120;2023-02-03T00:08:14;25.10;;;13.30;;
60726;SDS011;46577;49.004;12.120;2023-02-03T00:10:42;25.70;;;13.40;;
60726;SDS011;46577;49.004;12.120;2023-02-03T00:13:08;20.97;;;12.87;;
60726;SDS011;46577;49.004;12.120;2023-02-03T00:15:34;21.20;;;13.30;;
60726;SDS011;46577;49.004;12.120;2023-02-03T00:17:59;23.73;;;13.50;;
60726;SDS011;46577;49.004;12.120;2023-02-03T00:20:25;19.30;;;11.43;;
60726;SDS011;46577;49.004;12.120;2023-02-03T00:22:51;25.13;;;13.43;;
60726;SDS011;46577;49.004;12.120;2023-02-03T00:25:17;25.90;;;13.47;;
60726;SDS011;46577;49.004;12.120;2023-02-03T00:27:43;21.63;;;12.03;;
60726;SDS011;46577;49.004;12.120;2023-02-03T00:30:09;23.87;;;12.37;;
60726;SDS011;46577;49.004;12.120;2023-02-03T00:32:36;28.33;;;13.50;;
60726;SDS011;46577;49.004;12.120;2023-02-03T00:35:02;24.90;;;13.33;;
60726;SDS011;46577;49.004;12.120;2023-02-03T00:37:28;21.23;;;12.10;;
60726;SDS011;46577;49.004;12.120;2023-02-03T00:39:54;26.93;;;12.87;;
60726;SDS011;46577;49.004;12.120;2023-02-03T00:42:19;22.13;;;12.87;;
60726;SDS011;46577;49.004;12.120;2023-02-03T00:44:45;20.73;;;12.60;;
60726;SDS011;46577;49.004;12.120;2023-02-03T00:47:10;21.83;;;12.33;;
60726;SDS011;46577;49.004;12.120;2023-02-03T00:49:36;21.73;;;12.40;;
60726;SDS011;46577;49.004;12.120;2023-02-03T00:52:02;21.60;;;12.70;;
60726;SDS011;46577;49.004;12.120;2023-02-03T00:54:27;16.47;;;8.67;;
60726;SDS011;46577;49.004;12.120;2023-02-03T00:56:53;10.20;;;5.77;;
60726;SDS011;46577;49.004;12.120;2023-02-03T00:59:18;7.17;;;4.03;;
60726;SDS011;46577;49.004;12.120;2023-02-03T01:01:44;4.43;;;3.67;;
60726;SDS011;46577;49.004;12.120;2023-02-03T01:04:10;5.30;;;3.27;;
60726;SDS011;46577;49.004;12.120;2023-02-03T01:06:35;5.00;;;2.73;;
60726;SDS011;46577;49.004;12.120;2023-02-03T01:09:03;3.97;;;2.67;;
60726;SDS011;46577;49.004;12.120;2023-02-03T01:11:29;4.83;;;2.37;;
60726;SDS011;46577;49.004;12.120;2023-02-03T01:13:56;5.57;;;2.30;;
60726;SDS011;46577;49.004;12.120;2023-02-03T01:16:26;2.80;;;2.17;;
60726;SDS011;46577;49.004;12.120;2023-02-03T01:18:54;2.40;;;2.20;;
60726;SDS011;46577;49.004;12.120;2023-02-03T01:21:21;2.93;;;2.60;;
60726;SDS011;46577;49.004;12.120;2023-02-03T01:23:49;2.97;;;1.83;;
60726;SDS011;46577;49.004;12.120;2023-02-03T01:26:17;2.20;;;1.83;;
60726;SDS011;46577;49.004;12.120;2023-02-03T01:28:50;1.77;;;1.63;;
60726;SDS011;46577;49.004;12.120;2023-02-03T01:31:18;1.70;;;1.60;;
60726;SDS011;46577;49.004;12.120;2023-02-03T01:33:46;1.93;;;1.20;;
60726;SDS011;46577;49.004;12.120;2023-02-03T01:36:13;1.77;;;1.43;;
60726;SDS011;46577;49.004;12.120;2023-02-03T01:38:40;1.60;;;1.50;;
60726;SDS011;46577;49.004;12.120;2023-02-03T01:41:09;2.57;;;1.10;;
60726;SDS011;46577;49.004;12.120;2023-02-03T01:43:40;2.03;;;1.40;;
60726;SDS011;46577;49.004;12.120;2023-02-03T01:48:55;2.50;;;1.20;;
60726;SDS011;46577;49.004;12.120;2023-02-03T01:51:27;1.50;;;1.20;;
60726;SDS011;46577;49.004;12.120;2023-02-03T01:53:54;1.50;;;1.20;;
60726;SDS011;46577;49.004;12.120;2023-02-03T01:56:21;2.40;;;1.43;;
60726;SDS011;46577;49.004;12.120;2023-02-03T01:58:49;0.93;;;0.90;;
60726;SDS011;46577;49.004;12.120;2023-02-03T02:01:15;1.27;;;1.17;;
60726;SDS011;46577;49.004;12.120;2023-02-03T02:03:43;6.37;;;0.90;;
60726;SDS011;46577;49.004;12.120;2023-02-03T02:06:13;5.90;;;1.00;;
60726;SDS011;46577;49.004;12.120;2023-02-03T02:08:39;1.53;;;1.30;;
60726;SDS011;46577;49.004;12.120;2023-02-03T02:11:08;2.00;;;1.03;;
60726;SDS011;46577;49.004;12.120;2023-02-03T02:13:34;1.17;;;1.07;;
60726;SDS011;46577;49.004;12.120;2023-02-03T02:21:39;1.63;;;1.53;;
60726;SDS011;46577;49.004;12.120;2023-02-03T02:36:12;2.17;;;1.17;;
60726;SDS011;46577;49.004;12.120;2023-02-03T02:42:10;3.73;;;1.70;;
60726;SDS011;46577;49.004;12.120;2023-02-03T02:44:45;4.63;;;1.77;;
60726;SDS011;46577;49.004;12.120;2023-02-03T02:47:19;1.33;;;1.10;;
60726;SDS011;46577;49.004;12.120;2023-02-03T02:49:52;1.43;;;1.20;;
60726;SDS011;46577;49.004;12.120;2023-02-03T02:52:22;1.63;;;1.47;;
60726;SDS011;46577;49.004;12.120;2023-02-03T02:54:53;2.57;;;1.80;;
60726;SDS011;46577;49.004;12.120;2023-02-03T02:57:22;6.40;;;1.73;;
60726;SDS011;46577;49.004;12.120;2023-02-03T02:59:51;2.23;;;2.03;;
60726;SDS011;46577;49.004;12.120;2023-02-03T03:02:18;2.60;;;2.00;;
60726;SDS011;46577;49.004;12.120;2023-02-03T03:04:44;2.23;;;1.93;;
60726;SDS011;46577;49.004;12.120;2023-02-03T03:07:19;2.10;;;1.90;;
60726;SDS011;46577;49.004;12.120;2023-02-03T03:10:00;3.97;;;2.40;;
60726;SDS011;46577;49.004;12.120;2023-02-03T03:12:30;3.67;;;2.57;;
60726;SDS011;46577;49.004;12.120;2023-02-03T03:17:42;3.90;;;2.60;;
60726;SDS011;46577;49.004;12.120;2023-02-03T03:20:13;3.83;;;1.93;;
60726;SDS011;46577;49.004;12.120;2023-02-03T03:22:47;3.90;;;3.17;;
60726;SDS011;46577;49.004;12.120;2023-02-03T03:25:20;7.53;;;3.17;;
60726;SDS011;46577;49.004;12.120;2023-02-03T03:27:50;3.23;;;2.70;;
60726;SDS011;46577;49.004;12.120;2023-02-03T03:30:24;2.83;;;2.30;;
60726;SDS011;46577;49.004;12.120;2023-02-03T03:32:54;3.80;;;3.00;;
60726;SDS011;46577;49.004;12.120;2023-02-03T03:35:20;5.10;;;3.73;;
60726;SDS011;46577;49.004;12.120;2023-02-03T03:37:50;2.97;;;2.63;;
60726;SDS011;46577;49.004;12.120;2023-02-03T03:40:21;5.20;;;3.90;;
60726;SDS011;46577;49.004;12.120;2023-02-03T03:42:57;3.03;;;2.73;;
60726;SDS011;46577;49.004;12.120;2023-02-03T03:45:27;5.67;;;3.67;;
60726;SDS011;46577;49.004;12.120;2023-02-03T03:48:06;8.53;;;3.57;;
60726;SDS011;46577;49.004;12.120;2023-02-03T03:50:59;3.97;;;3.20;;
60726;SDS011;46577;49.004;12.120;2023-02-03T03:53:28;7.60;;;4.20;;
60726;SDS011;46577;49.004;12.120;2023-02-03T03:55:56;5.43;;;3.07;;
60726;SDS011;46577;49.004;12.120;2023-02-03T03:58:25;4.87;;;3.70;;
60726;SDS011;46577;49.004;12.120;2023-02-03T04:00:55;5.80;;;3.40;;
60726;SDS011;46577;49.004;12.120;2023-02-03T04:03:24;10.30;;;3.90;;
60726;SDS011;46577;49.004;12.120;2023-02-03T04:05:55;7.60;;;3.87;;
60726;SDS011;46577;49.004;12.120;2023-02-03T04:08:21;7.10;;;4.17;;
60726;SDS011;46577;49.004;12.120;2023-02-03T04:10:46;5.83;;;3.50;;
60726;SDS011;46577;49.004;12.120;2023-02-03T04:13:12;5.90;;;3.60;;
60726;SDS011;46577;49.004;12.120;2023-02-03T04:15:39;4.57;;;3.33;;
60726;SDS011;46577;49.004;12.120;2023-02-03T04:18:05;6.70;;;3.40;;
60726;SDS011;46577;49.004;12.120;2023-02-03T04:20:31;7.00;;;3.43;;
60726;SDS011;46577;49.004;12.120;2023-02-03T04:22:57;3.00;;;2.63;;
60726;SDS011;46577;49.004;12.120;2023-02-03T04:25:23;8.10;;;3.67;;
60726;SDS011;46577;49.004;12.120;2023-02-03T04:27:49;3.97;;;2.83;;
60726;SDS011;46577;49.004;12.120;2023-02-03T04:30:15;6.13;;;3.50;;
60726;SDS011;46577;49.004;12.120;2023-02-03T04:32:42;7.83;;;3.17;;
60726;SDS011;46577;49.004;12.120;2023-02-03T04:35:09;7.10;;;2.90;;
60726;SDS011;46577;49.004;12.120;2023-02-03T04:37:35;5.10;;;3.33;;
60726;SDS011;46577;49.004;12.120;2023-02-03T04:40:00;6.03;;;3.20;;
60726;SDS011;46577;49.004;12.120;2023-02-03T04:42:27;3.00;;;2.50;;
60726;SDS011;46577;49.004;12.120;2023-02-03T04:44:52;3.70;;;2.30;;
60726;SDS011;46577;49.004;12.120;2023-02-03T04:47:18;8.33;;;2.80;;
60726;SDS011;46577;49.004;12.120;2023-02-03T04:49:44;2.73;;;2.43;;
60726;SDS011;46577;49.004;12.120;2023-02-03T04:52:10;4.50;;;2.17;;
60726;SDS011;46577;49.004;12.120;2023-02-03T04:54:36;4.20;;;2.50;;
60726;SDS011;46577;49.004;12.120;2023-02-03T04:57:03;2.73;;;2.30;;
60726;SDS011;46577;49.004;12.120;2023-02-03T04:59:29;8.33;;;2.57;;
60726;SDS011;46577;49.004;12.120;2023-02-03T05:01:55;3.30;;;2.23;;
60726;SDS011;46577;49.004;12.120;2023-02-03T05:04:21;3.50;;;2.20;;
60726;SDS011;46577;49.004;12.120;2023-02-03T05:06:46;5.90;;;2.13;;
60726;SDS011;46577;49.004;12.120;2023-02-03T05:09:12;3.97;;;2.40;;
60726;SDS011;46577;49.004;12.120;2023-02-03T05:11:38;3.07;;;2.77;;
60726;SDS011;46577;49.004;12.120;2023-02-03T05:14:03;3.70;;;2.30;;
60726;SDS011;46577;49.004;12.120;2023-02-03T05:16:29;4.90;;;2.00;;
60726;SDS011;46577;49.004;12.120;2023-02-03T05:18:55;4.00;;;2.40;;
60726;SDS011;46577;49.004;12.120;2023-02-03T05:21:20;2.67;;;1.90;;
60726;SDS011;46577;49.004;12.120;2023-02-03T05:23:46;3.50;;;2.20;;
60726;SDS011;46577;49.004;12.120;2023-02-03T05:26:12;2.30;;;1.90;;
60726;SDS011;46577;49.004;12.120;2023-02-03T05:28:37;3.40;;;2.60;;
60726;SDS011;46577;49.004;12.120;2023-02-03T05:31:03;2.93;;;1.90;;
60726;SDS011;46577;49.004;12.120;2023-02-03T05:33:29;3.60;;;2.13;;
60726;SDS011;46577;49.004;12.120;2023-02-03T05:35:55;2.00;;;1.70;;
60726;SDS011;46577;49.004;12.120;2023-02-03T05:38:21;5.73;;;2.00;;
60726;SDS011;46577;49.004;12.120;2023-02-03T05:40:47;6.60;;;2.20;;
60726;SDS011;46577;49.004;12.120;2023-02-03T05:43:32;3.57;;;1.73;;
60726;SDS011;46577;49.004;12.120;2023-02-03T05:46:01;2.13;;;1.60;;
60726;SDS011;46577;49.004;12.120;2023-02-03T05:48:28;1.90;;;1.67;;
60726;SDS011;46577;49.004;12.120;2023-02-03T05:50:53;1.77;;;1.67;;
60726;SDS011;46577;49.004;12.120;2023-02-03T05:53:19;1.73;;;1.50;;
60726;SDS011;46577;49.004;12.120;2023-02-03T05:55:45;6.00;;;1.97;;
60726;SDS011;46577;49.004;12.120;2023-02-03T05:58:10;2.40;;;1.97;;
60726;SDS011;46577;49.004;12.120;2023-02-03T06:00:36;3.67;;;1.80;;
60726;SDS011;46577;49.004;12.120;2023-02-03T06:03:02;2.10;;;1.90;;
60726;SDS011;46577;49.004;12.120;2023-02-03T06:05:28;2.33;;;1.90;;
60726;SDS011;46577;49.004;12.120;2023-02-03T06:07:55;2.40;;;1.70;;
60726;SDS011;46577;49.004;12.120;2023-02-03T06:10:21;2.03;;;1.63;;
60726;SDS011;46577;49.004;12.120;2023-02-03T06:12:46;2.17;;;1.77;;
60726;SDS011;46577;49.004;12.120;2023-02-03T06:15:13;3.93;;;2.60;;
60726;SDS011;46577;49.004;12.120;2023-02-03T06:17:39;7.13;;;2.83;;
60726;SDS011;46577;49.004;12.120;2023-02-03T06:20:08;3.80;;;1.90;;
60726;SDS011;46577;49.004;12.120;2023-02-03T06:22:35;3.63;;;1.97;;
60726;SDS011;46577;49.004;12.120;2023-02-03T06:25:00;2.20;;;1.73;;
60726;SDS011;46577;49.004;12.120;2023-02-03T06:27:26;3.20;;;2.33;;
60726;SDS011;46577;49.004;12.120;2023-02-03T06:29:52;2.47;;;1.87;;
60726;SDS011;46577;49.004;12.120;2023-02-03T06:32:18;2.80;;;1.83;;
60726;SDS011;46577;49.004;12.120;2023-02-03T06:34:43;2.10;;;1.53;;
60726;SDS011;46577;49.004;12.120;2023-02-03T06:37:09;1.63;;;1.40;;
60726;SDS011;46577;49.004;12.120;2023-02-03T06:39:35;3.33;;;1.67;;
60726;SDS011;46577;49.004;12.120;2023-02-03T06:42:00;5.20;;;2.00;;
60726;SDS011;46577;49.004;12.120;2023-02-03T06:44:26;4.23;;;2.23;;
60726;SDS011;46577;49.004;12.120;2023-02-03T06:46:52;1.63;;;1.37;;
60726;SDS011;46577;49.004;12.120;2023-02-03T06:49:17;2.80;;;1.50;;
60726;SDS011;46577;49.004;12.120;2023-02-03T06:51:43;3.07;;;1.80;;
60726;SDS011;46577;49.004;12.120;2023-02-03T06:54:10;5.23;;;2.07;;
60726;SDS011;46577;49.004;12.120;2023-02-03T06:56:37;3.60;;;2.23;;
60726;SDS011;46577;49.004;12.120;2023-02-03T06:59:03;2.30;;;1.90;;
60726;SDS011;46577;49.004;12.120;2023-02-03T07:01:29;4.20;;;2.27;;
60726;SDS011;46577;49.004;12.120;2023-02-03T07:03:55;5.47;;;2.27;;
60726;SDS011;46577;49.004;12.120;2023-02-03T07:06:24;2.93;;;1.93;;
60726;SDS011;46577;49.004;12.120;2023-02-03T07:08:55;2.23;;;2.03;;
60726;SDS011;46577;49.004;12.120;2023-02-03T07:11:21;7.70;;;2.80;;
60726;SDS011;46577;49.004;12.120;2023-02-03T07:13:47;3.47;;;1.93;;
60726;SDS011;46577;49.004;12.120;2023-02-03T07:16:12;3.47;;;2.47;;
60726;SDS011;46577;49.004;12.120;2023-02-03T07:18:38;2.03;;;1.83;;
60726;SDS011;46577;49.004;12.120;2023-02-03T07:21:05;1.93;;;1.17;;
60726;SDS011;46577;49.004;12.120;2023-02-03T07:23:31;1.50;;;1.40;;
60726;SDS011;46577;49.004;12.120;2023-02-03T07:26:00;1.53;;;1.43;;
60726;SDS011;46577;49.004;12.120;2023-02-03T07:28:27;1.63;;;1.47;;
60726;SDS011;46577;49.004;12.120;2023-02-03T07:30:52;2.20;;;1.57;;
60726;SDS011;46577;49.004;12.120;2023-02-03T07:33:18;2.50;;;2.13;;
60726;SDS011;46577;49.004;12.120;2023-02-03T07:35:49;1.60;;;1.50;;
60726;SDS011;46577;49.004;12.120;2023-02-03T07:38:18;5.03;;;1.87;;
60726;SDS011;46577;49.004;12.120;2023-02-03T07:40:44;1.90;;;1.80;;
60726;SDS011;46577;49.004;12.120;2023-02-03T07:43:09;5.10;;;2.07;;
60726;SDS011;46577;49.004;12.120;2023-02-03T07:45:35;1.90;;;1.33;;
60726;SDS011;46577;49.004;12.120;2023-02-03T07:48:00;2.83;;;1.60;;
60726;SDS011;46577;49.004;12.120;2023-02-03T07:50:26;1.50;;;1.40;;
60726;SDS011;46577;49.004;12.120;2023-02-03T07:52:52;1.50;;;1.00;;
60726;SDS011;46577;49.004;12.120;2023-02-03T07:55:17;3.93;;;1.53;;
60726;SDS011;46577;49.004;12.120;2023-02-03T07:57:43;1.30;;;1.20;;
60726;SDS011;46577;49.004;12.120;2023-02-03T08:00:12;1.30;;;1.20;;
60726;SDS011;46577;49.004;12.120;2023-02-03T08:02:40;2.60;;;1.37;;
60726;SDS011;46577;49.004;12.120;2023-02-03T08:05:06;1.30;;;1.10;;
60726;SDS011;46577;49.004;12.120;2023-02-03T08:07:32;1.63;;;1.30;;
60726;SDS011;46577;49.004;12.120;2023-02-03T08:09:58;12.10;;;1.40;;
60726;SDS011;46577;49.004;12.120;2023-02-03T08:12:23;3.87;;;1.20;;
60726;SDS011;46577;49.004;12.120;2023-02-03T08:14:49;1.43;;;0.97;;
60726;SDS011;46577;49.004;12.120;2023-02-03T08:17:15;0.80;;;0.80;;
60726;SDS011;46577;49.004;12.120;2023-02-03T08:19:40;1.27;;;1.17;;
60726;SDS011;46577;49.004;12.120;2023-02-03T08:22:06;1.13;;;1.00;;
60726;SDS011;46577;49.004;12.120;2023-02-03T08:24:31;1.30;;;0.97;;
60726;SDS011;46577;49.004;12.120;2023-02-03T08:26:57;1.87;;;1.10;;
60726;SDS011;46577;49.004;12.120;2023-02-03T08:29:23;3.70;;;1.30;;
60726;SDS011;46577;49.004;12.120;2023-02-03T08:31:49;1.57;;;0.87;;
60726;SDS011;46577;49.004;12.120;2023-02-03T08:34:14;1.10;;;1.03;;
60726;SDS011;46577;49.004;12.120;2023-02-03T08:36:40;1.10;;;1.00;;
60726;SDS011;46577;49.004;12.120;2023-02-03T08:39:07;1.00;;;0.97;;
60726;SDS011;46577;49.004;12.120;2023-02-03T08:41:32;1.00;;;1.00;;
60726;SDS011;46577;49.004;12.120;2023-02-03T08:43:58;1.10;;;1.00;;
60726;SDS011;46577;49.004;12.120;2023-02-03T08:46:24;1.07;;;1.00;;
60726;SDS011;46577;49.004;12.120;2023-02-03T08:48:49;1.57;;;0.83;;
60726;SDS011;46577;49.004;12.120;2023-02-03T08:51:17;3.10;;;0.87;;
60726;SDS011;46577;49.004;12.120;2023-02-03T08:53:43;2.93;;;1.40;;
60726;SDS011;46577;49.004;12.120;2023-02-03T08:56:10;1.60;;;1.50;;
60726;SDS011;46577;49.004;12.120;2023-02-03T08:58:36;2.00;;;1.20;;
60726;SDS011;46577;49.004;12.120;2023-02-03T09:01:06;2.87;;;1.47;;
60726;SDS011;46577;49.004;12.120;2023-02-03T09:03:33;2.00;;;1.60;;
60726;SDS011;46577;49.004;12.120;2023-02-03T09:05:59;4.50;;;1.13;;
60726;SDS011;46577;49.004;12.120;2023-02-03T09:08:25;1.57;;;1.47;;
60726;SDS011;46577;49.004;12.120;2023-02-03T09:10:51;1.40;;;1.30;;
60726;SDS011;46577;49.004;12.120;2023-02-03T09:13:17;1.10;;;0.97;;
60726;SDS011;46577;49.004;12.120;2023-02-03T09:15:42;1.60;;;1.40;;
60726;SDS011;46577;49.004;12.120;2023-02-03T09:18:08;1.63;;;1.10;;
60726;SDS011;46577;49.004;12.120;2023-02-03T09:20:33;2.70;;;1.33;;
60726;SDS011;46577;49.004;12.120;2023-02-03T09:22:59;0.90;;;0.90;;
60726;SDS011;46577;49.004;12.120;2023-02-03T09:25:25;1.30;;;1.17;;
60726;SDS011;46577;49.004;12.120;2023-02-03T09:27:50;1.80;;;1.30;;
60726;SDS011;46577;49.004;12.120;2023-02-03T09:30:16;2.73;;;1.23;;
60726;SDS011;46577;49.004;12.120;2023-02-03T09:32:42;2.40;;;1.80;;
60726;SDS011;46577;49.004;12.120;2023-02-03T09:35:07;1.50;;;1.30;;
60726;SDS011;46577;49.004;12.120;2023-02-03T09:37:33;1.30;;;1.10;;
60726;SDS011;46577;49.004;12.120;2023-02-03T09:39:58;1.13;;;1.03;;
60726;SDS011;46577;49.004;12.120;2023-02-03T09:42:32;2.40;;;1.47;;
60726;SDS011;46577;49.004;12.120;2023-02-03T09:45:46;4.50;;;1.70;;
60726;SDS011;46577;49.004;12.120;2023-02-03T09:47:56;4.43;;;1.30;;
60726;SDS011;46577;49.004;12.120;2023-02-03T09:50:38;1.67;;;1.40;;
60726;SDS011;46577;49.004;12.120;2023-02-03T09:53:11;2.67;;;1.30;;
60726;SDS011;46577;49.004;12.120;2023-02-03T09:55:50;1.83;;;1.20;;
60726;SDS011;46577;49.004;12.120;2023-02-03T09:58:16;1.80;;;1.70;;
60726;SDS011;46577;49.004;12.120;2023-02-03T10:03:23;1.17;;;1.13;;
60726;SDS011;46577;49.004;12.120;2023-02-03T10:06:08;9.47;;;1.40;;
60726;SDS011;46577;49.004;12.120;2023-02-03T10:14:09;3.07;;;1.53;;
60726;SDS011;46577;49.004;12.120;2023-02-03T10:20:02;3.13;;;1.70;;
60726;SDS011;46577;49.004;12.120;2023-02-03T10:22:43;1.70;;;1.60;;
60726;SDS011;46577;49.004;12.120;2023-02-03T10:27:38;2.23;;;1.77;;
60726;SDS011;46577;49.004;12.120;2023-02-03T10:32:42;1.63;;;1.53;;
60726;SDS011;46577;49.004;12.120;2023-02-03T10:35:11;3.53;;;1.30;;
60726;SDS011;46577;49.004;12.120;2023-02-03T10:37:41;2.47;;;1.20;;
60726;SDS011;46577;49.004;12.120;2023-02-03T10:40:11;1.53;;;1.10;;
60726;SDS011;46577;49.004;12.120;2023-02-03T10:42:38;1.73;;;1.50;;
60726;SDS011;46577;49.004;12.120;2023-02-03T10:45:22;2.13;;;1.53;;
60726;SDS011;46577;49.004;12.120;2023-02-03T10:47:52;1.93;;;1.57;;
60726;SDS011;46577;49.004;12.120;2023-02-03T10:50:26;1.80;;;1.13;;
60726;SDS011;46577;49.004;12.120;2023-02-03T10:53:37;3.10;;;1.13;;
60726;SDS011;46577;49.004;12.120;2023-02-03T10:58:27;3.27;;;1.90;;
60726;SDS011;46577;49.004;12.120;2023-02-03T11:01:11;1.90;;;1.07;;
60726;SDS011;46577;49.004;12.120;2023-02-03T11:03:56;1.53;;;1.07;;
60726;SDS011;46577;49.004;12.120;2023-02-03T11:06:24;0.97;;;0.90;;
60726;SDS011;46577;49.004;12.120;2023-02-03T11:08:50;2.40;;;1.07;;
60726;SDS011;46577;49.004;12.120;2023-02-03T11:11:21;1.57;;;1.30;;
60726;SDS011;46577;49.004;12.120;2023-02-03T11:16:31;2.37;;;1.30;;
60726;SDS011;46577;49.004;12.120;2023-02-03T11:18:58;2.50;;;1.63;;
60726;SDS011;46577;49.004;12.120;2023-02-03T11:26:24;1.53;;;1.10;;
60726;SDS011;46577;49.004;12.120;2023-02-03T11:28:57;3.90;;;2.50;;
60726;SDS011;46577;49.004;12.120;2023-02-03T11:31:27;2.37;;;1.57;;
60726;SDS011;46577;49.004;12.120;2023-02-03T11:33:57;2.00;;;1.40;;
60726;SDS011;46577;49.004;12.120;2023-02-03T11:36:28;1.43;;;1.10;;
60726;SDS011;46577;49.004;12.120;2023-02-03T11:41:42;1.90;;;1.50;;
60726;SDS011;46577;49.004;12.120;2023-02-03T11:44:14;1.77;;;1.20;;
60726;SDS011;46577;49.004;12.120;2023-02-03T11:46:43;2.30;;;1.43;;
60726;SDS011;46577;49.004;12.120;2023-02-03T11:49:27;4.80;;;1.60;;
60726;SDS011;46577;49.004;12.120;2023-02-03T11:57:35;1.73;;;1.37;;
60726;SDS011;46577;49.004;12.120;2023-02-03T12:00:35;1.30;;;1.20;;
60726;SDS011;46577;49.004;12.120;2023-02-03T12:14:07;1.43;;;0.93;;
60726;SDS011;46577;49.004;12.120;2023-02-03T12:19:39;1.17;;;0.70;;
60726;SDS011;46577;49.004;12.120;2023-02-03T12:30:21;1.63;;;1.20;;
60726;SDS011;46577;49.004;12.120;2023-02-03T12:32:59;5.23;;;1.10;;
60726;SDS011;46577;49.004;12.120;2023-02-03T12:35:35;0.93;;;0.93;;
60726;SDS011;46577;49.004;12.120;2023-02-03T12:40:58;1.10;;;0.80;;
60726;SDS011;46577;49.004;12.120;2023-02-03T12:43:35;0.90;;;0.73;;
60726;SDS011;46577;49.004;12.120;2023-02-03T12:46:03;0.83;;;0.83;;
60726;SDS011;46577;49.004;12.120;2023-02-03T12:57:10;1.60;;;0.80;;
60726;SDS011;46577;49.004;12.120;2023-02-03T12:59:48;1.10;;;0.70;;
60726;SDS011;46577;49.004;12.120;2023-02-03T13:02:26;0.83;;;0.83;;
60726;SDS011;46577;49.004;12.120;2023-02-03T13:05:03;0.80;;;0.70;;
60726;SDS011;46577;49.004;12.120;2023-02-03T13:07:35;1.63;;;0.90;;
60726;SDS011;46577;49.004;12.120;2023-02-03T13:10:21;1.27;;;0.83;;
60726;SDS011;46577;49.004;12.120;2023-02-03T13:12:54;1.33;;;0.90;;
60726;SDS011;46577;49.004;12.120;2023-02-03T13:15:23;1.17;;;1.10;;
60726;SDS011;46577;49.004;12.120;2023-02-03T13:18:33;2.10;;;0.90;;
60726;SDS011;46577;49.004;12.120;2023-02-03T13:20:39;0.80;;;0.80;;
60726;SDS011;46577;49.004;12.120;2023-02-03T13:23:06;3.17;;;0.90;;
60726;SDS011;46577;49.004;12.120;2023-02-03T13:34:22;1.27;;;1.10;;
60726;SDS011;46577;49.004;12.120;2023-02-03T13:43:02;1.00;;;0.90;;
60726;SDS011;46577;49.004;12.120;2023-02-03T13:45:31;2.03;;;0.70;;
60726;SDS011;46577;49.004;12.120;2023-02-03T13:50:38;0.83;;;0.83;;
60726;SDS011;46577;49.004;12.120;2023-02-03T13:53:26;1.43;;;0.80;;
60726;SDS011;46577;49.004;12.120;2023-02-03T13:55:56;0.60;;;0.60;;
60726;SDS011;46577;49.004;12.120;2023-02-03T13:58:26;0.80;;;0.80;;
60726;SDS011;46577;49.004;12.120;2023-02-03T14:05:49;1.33;;;0.60;;
60726;SDS011;46577;49.004;12.120;2023-02-03T14:16:38;0.60;;;0.60;;
60726;SDS011;46577;49.004;12.120;2023-02-03T14:19:08;0.60;;;0.53;;
60726;SDS011;46577;49.004;12.120;2023-02-03T14:22:14;0.63;;;0.63;;
60726;SDS011;46577;49.004;12.120;2023-02-03T14:24:37;1.07;;;0.97;;
60726;SDS011;46577;49.004;12.120;2023-02-03T14:27:15;1.60;;;0.80;;
60726;SDS011;46577;49.004;12.120;2023-02-03T14:29:43;0.70;;;0.70;;
60726;SDS011;46577;49.004;12.120;2023-02-03T14:32:12;3.03;;;0.87;;
60726;SDS011;46577;49.004;12.120;2023-02-03T14:34:45;2.50;;;1.10;;
60726;SDS011;46577;49.004;12.120;2023-02-03T14:37:25;0.60;;;0.60;;
60726;SDS011;46577;49.004;12.120;2023-02-03T14:52:56;1.17;;;1.07;;
60726;SDS011;46577;49.004;12.120;2023-02-03T14:55:50;1.30;;;1.20;;
60726;SDS011;46577;49.004;12.120;2023-02-03T14:58:28;1.73;;;1.20;;
60726;SDS011;46577;49.004;12.120;2023-02-03T15:00:58;1.17;;;0.80;;
60726;SDS011;46577;49.004;12.120;2023-02-03T15:03:25;2.60;;;1.50;;
60726;SDS011;46577;49.004;12.120;2023-02-03T15:05:58;1.30;;;1.00;;
60726;SDS011;46577;49.004;12.120;2023-02-03T15:08:43;1.63;;;1.00;;
60726;SDS011;46577;49.004;12.120;2023-02-03T15:11:20;2.33;;;1.30;;
60726;SDS011;46577;49.004;12.120;2023-02-03T15:13:48;2.80;;;1.80;;
60726;SDS011;46577;49.004;12.120;2023-02-03T15:16:18;3.00;;;1.00;;
60726;SDS011;46577;49.004;12.120;2023-02-03T15:18:51;3.23;;;1.90;;
60726;SDS011;46577;49.004;12.120;2023-02-03T15:21:19;3.90;;;2.20;;
60726;SDS011;46577;49.004;12.120;2023-02-03T15:23:45;11.77;;;3.67;;
60726;SDS011;46577;49.004;12.120;2023-02-03T15:26:20;2.20;;;1.43;;
60726;SDS011;46577;49.004;12.120;2023-02-03T15:31:30;1.40;;;1.00;;
60726;SDS011;46577;49.004;12.120;2023-02-03T15:34:12;2.87;;;0.90;;
60726;SDS011;46577;49.004;12.120;2023-02-03T15:36:48;0.73;;;0.73;;
60726;SDS011;46577;49.004;12.120;2023-02-03T15:42:00;1.23;;;1.13;;
60726;SDS011;46577;49.004;12.120;2023-02-03T15:44:31;0.93;;;0.80;;
60726;SDS011;46577;49.004;12.120;2023-02-03T15:47:02;0.70;;;0.67;;
60726;SDS011;46577;49.004;12.120;2023-02-03T15:49:35;0.70;;;0.70;;
60726;SDS011;46577;49.004;12.120;2023-02-03T15:52:09;0.93;;;0.93;;
60726;SDS011;46577;49.004;12.120;2023-02-03T15:54:43;1.03;;;0.93;;
60726;SDS011;46577;49.004;12.120;2023-02-03T15:59:50;2.10;;;1.37;;
60726;SDS011;46577;49.004;12.120;2023-02-03T16:02:27;1.10;;;1.00;;
60726;SDS011;46577;49.004;12.120;2023-02-03T16:04:56;1.00;;;0.77;;
60726;SDS011;46577;49.004;12.120;2023-02-03T16:07:26;2.30;;;1.20;;
60726;SDS011;46577;49.004;12.120;2023-02-03T16:09:54;0.70;;;0.70;;
60726;SDS011;46577;49.004;12.120;2023-02-03T16:14:52;1.37;;;0.70;;
60726;SDS011;46577;49.004;12.120;2023-02-03T16:22:40;0.73;;;0.67;;
60726;SDS011;46577;49.004;12.120;2023-02-03T16:25:13;2.13;;;0.70;;
60726;SDS011;46577;49.004;12.120;2023-02-03T16:27:44;1.03;;;0.73;;
60726;SDS011;46577;49.004;12.120;2023-02-03T16:30:38;1.07;;;0.73;;
60726;SDS011;46577;49.004;12.120;2023-02-03T16:33:22;0.90;;;0.70;;
60726;SDS011;46577;49.004;12.120;2023-02-03T16:36:10;0.70;;;0.70;;
60726;SDS011;46577;49.004;12.120;2023-02-03T16:38:57;1.37;;;1.00;;
60726;SDS011;46577;49.004;12.120;2023-02-03T16:41:44;0.77;;;0.60;;
60726;SDS011;46577;49.004;12.120;2023-02-03T16:44:28;2.60;;;0.63;;
60726;SDS011;46577;49.004;12.120;2023-02-03T16:47:20;0.70;;;0.70;;
60726;SDS011;46577;49.004;12.120;2023-02-03T16:50:11;0.70;;;0.70;;
60726;SDS011;46577;49.004;12.120;2023-02-03T16:53:10;2.60;;;0.67;;
60726;SDS011;46577;49.004;12.120;2023-02-03T16:55:47;0.50;;;0.50;;
60726;SDS011;46577;49.004;12.120;2023-02-03T16:58:13;0.47;;;0.40;;
60726;SDS011;46577;49.004;12.120;2023-02-03T17:00:40;1.37;;;0.77;;
60726;SDS011;46577;49.004;12.120;2023-02-03T17:03:09;0.53;;;0.53;;
60726;SDS011;46577;49.004;12.120;2023-02-03T17:05:37;1.27;;;0.60;;
60726;SDS011;46577;49.004;12.120;2023-02-03T17:08:04;0.50;;;0.50;;
60726;SDS011;46577;49.004;12.120;2023-02-03T17:10:29;1.07;;;0.90;;
60726;SDS011;46577;49.004;12.120;2023-02-03T17:12:58;0.70;;;0.60;;
60726;SDS011;46577;49.004;12.120;2023-02-03T17:15:24;0.90;;;0.70;;
60726;SDS011;46577;49.004;12.120;2023-02-03T17:17:49;0.50;;;0.50;;
60726;SDS011;46577;49.004;12.120;2023-02-03T17:20:15;0.60;;;0.60;;
60726;SDS011;46577;49.004;12.120;2023-02-03T17:22:41;0.60;;;0.60;;